SARC/CNQ METAR and TAF weather

Enter ICAO airport designator
Station Type Date Time Source
SARC METAR 2020/09/22 00:00 UTC NOAA

SARC 220000Z 16005KT CAVOK 15/01 Q1021


Station Type Date Time Source
SARC Decoded METAR 2020/09/22 00:00 UTC NOAA

Corrientes Aero., Argentina (SARC) 27-27S 058-46W 62M
Sep 21, 2020 - 08:00 PM EDT / 2020.09.22 0000 UTC
Wind: from the SSE (160 degrees) at 6 MPH (5 KT):0
Visibility: greater than 7 mile(s):0
Temperature: 59 F (15 C)
Dew Point: 33 F (1 C)
Relative Humidity: 38%
Pressure (altimeter): 30.15 in. Hg (1021 hPa)
ob: SARC 220000Z 16005KT CAVOK 15/01 Q1021
cycle: 0

Station Type Date Time Source
SARC TAF 2020/07/23 10:23 UTC NOAA

TAF
AMD SARC 230915Z 2310/2406 20005KT 6000 OVC018 TX25/2319Z TN13/2410Z

Example: see airport list